createdAt,value
2017-06-24T00:00:06.627Z,21.30
2017-06-24T00:02:33.514Z,21.20
2017-06-24T00:05:00.426Z,21.10
2017-06-24T00:07:27.353Z,20.90
2017-06-24T00:09:54.313Z,20.80
2017-06-24T00:12:21.203Z,20.60
2017-06-24T00:14:48.125Z,20.50
2017-06-24T00:17:15.403Z,20.60
2017-06-24T00:19:42.286Z,20.60
2017-06-24T00:22:09.217Z,20.60
2017-06-24T00:24:36.194Z,20.70
2017-06-24T00:27:03.074Z,20.80
2017-06-24T00:29:30.097Z,20.80
2017-06-24T00:31:57.391Z,21.10
2017-06-24T00:34:24.273Z,21.10
2017-06-24T00:36:51.233Z,21.30
2017-06-24T00:39:18.126Z,21.50
2017-06-24T00:41:45.006Z,21.60
2017-06-24T00:44:11.943Z,21.70
2017-06-24T00:46:38.825Z,21.70
2017-06-24T00:49:05.714Z,21.80
2017-06-24T00:51:32.705Z,21.90
2017-06-24T00:53:59.657Z,21.90
2017-06-24T00:56:26.561Z,21.80
2017-06-24T00:58:53.492Z,21.80
2017-06-24T01:01:20.397Z,21.70
2017-06-24T01:03:47.278Z,21.60
2017-06-24T01:06:14.289Z,21.50
2017-06-24T01:08:41.182Z,21.50
2017-06-24T01:11:08.128Z,21.50
2017-06-24T01:13:35.130Z,21.60
2017-06-24T01:16:02.015Z,21.60
2017-06-24T01:18:28.917Z,21.60
2017-06-24T01:20:55.865Z,21.60
2017-06-24T01:23:22.753Z,21.60
2017-06-24T01:25:49.761Z,21.50
2017-06-24T01:28:16.681Z,21.40
2017-06-24T01:30:43.569Z,21.50
2017-06-24T01:33:10.845Z,21.40
2017-06-24T01:35:37.762Z,21.40
2017-06-24T01:38:05.041Z,21.40
2017-06-24T01:40:31.921Z,21.40
2017-06-24T01:42:58.854Z,21.50
2017-06-24T01:45:25.737Z,21.40
2017-06-24T01:47:52.631Z,21.40
2017-06-24T01:50:19.549Z,21.30
2017-06-24T01:52:46.434Z,21.30
2017-06-24T01:55:13.321Z,21.40
2017-06-24T01:57:40.670Z,21.30
2017-06-24T02:00:07.618Z,21.30
2017-06-24T02:02:34.507Z,21.20
2017-06-24T02:05:01.454Z,21.20
2017-06-24T02:07:28.336Z,21.20
2017-06-24T02:09:55.221Z,21.10
2017-06-24T02:12:22.552Z,21.00
2017-06-24T02:14:49.501Z,21.10
2017-06-24T02:17:16.451Z,21.00
2017-06-24T02:19:43.401Z,21.00
2017-06-24T02:22:10.690Z,21.00
2017-06-24T02:24:37.599Z,21.00
2017-06-24T02:27:04.550Z,21.00
2017-06-24T02:29:31.898Z,20.90
2017-06-24T02:31:58.842Z,20.90
2017-06-24T02:34:25.737Z,20.80
2017-06-24T02:36:52.618Z,20.60
2017-06-24T02:39:19.585Z,20.40
2017-06-24T02:41:46.526Z,20.40
2017-06-24T02:44:13.409Z,20.20
2017-06-24T02:46:40.334Z,20.30
2017-06-24T02:49:07.617Z,20.50
2017-06-24T02:51:34.505Z,20.50
2017-06-24T02:54:01.471Z,20.60
2017-06-24T02:56:28.834Z,20.60
2017-06-24T02:58:56.126Z,20.60
2017-06-24T03:01:23.129Z,20.60
2017-06-24T03:03:50.066Z,20.60
2017-06-24T03:06:16.949Z,20.50
2017-06-24T03:08:43.909Z,20.40
2017-06-24T03:11:10.806Z,20.30
2017-06-24T03:13:38.100Z,20.30
2017-06-24T03:16:05.030Z,20.30
2017-06-24T03:18:32.319Z,20.20
2017-06-24T03:20:59.309Z,20.20
2017-06-24T03:23:26.234Z,19.90
2017-06-24T03:25:53.118Z,19.50
2017-06-24T03:28:20.454Z,19.20
2017-06-24T03:30:47.404Z,19.20
2017-06-24T03:33:14.345Z,19.20
2017-06-24T03:35:41.298Z,18.90
2017-06-24T03:38:08.673Z,18.60
2017-06-24T03:40:36.051Z,18.70
2017-06-24T03:43:02.953Z,18.70
2017-06-24T03:45:29.877Z,18.70
2017-06-24T03:47:56.772Z,18.70
2017-06-24T03:50:23.693Z,18.70
2017-06-24T03:52:51.017Z,18.80
2017-06-24T03:55:17.989Z,18.80
2017-06-24T03:57:44.886Z,18.90
2017-06-24T04:00:11.882Z,19.10
2017-06-24T04:02:38.833Z,19.20
2017-06-24T04:05:05.785Z,19.20
2017-06-24T04:07:33.137Z,19.20
2017-06-24T04:10:00.593Z,19.20
2017-06-24T04:12:27.488Z,19.20
2017-06-24T04:14:54.378Z,19.20
2017-06-24T04:17:21.325Z,19.00
2017-06-24T04:19:48.214Z,18.90
2017-06-24T04:22:15.121Z,18.80
2017-06-24T04:24:42.161Z,18.60
2017-06-24T04:27:09.118Z,18.40
2017-06-24T04:29:36.021Z,18.30
2017-06-24T04:32:03.013Z,18.40
2017-06-24T04:34:30.293Z,18.40
2017-06-24T04:36:57.182Z,18.40
2017-06-24T04:39:24.158Z,18.50
2017-06-24T04:41:51.048Z,18.70
2017-06-24T04:44:17.939Z,18.70
2017-06-24T04:46:44.891Z,18.80
2017-06-24T04:49:11.779Z,18.80
2017-06-24T04:51:38.685Z,19.20
2017-06-24T04:54:05.630Z,19.50
2017-06-24T04:56:32.521Z,19.80
2017-06-24T04:58:59.406Z,19.90
2017-06-24T05:01:26.333Z,19.80
2017-06-24T05:03:53.313Z,19.50
2017-06-24T05:06:20.597Z,19.00
2017-06-24T05:08:47.614Z,19.00
2017-06-24T05:11:14.505Z,18.90
2017-06-24T05:13:41.392Z,18.90
2017-06-24T05:16:08.354Z,18.90
2017-06-24T05:18:35.294Z,18.90
2017-06-24T05:21:02.249Z,18.80
2017-06-24T05:23:29.190Z,18.70
2017-06-24T05:25:56.133Z,18.80
2017-06-24T05:28:23.085Z,18.90
2017-06-24T05:30:50.135Z,18.80
2017-06-24T05:33:17.078Z,18.80
2017-06-24T05:35:44.021Z,18.80
2017-06-24T05:38:10.947Z,18.90
2017-06-24T05:40:37.914Z,18.90
2017-06-24T05:43:04.862Z,18.70
2017-06-24T05:45:31.789Z,18.70
2017-06-24T05:47:58.678Z,18.80
2017-06-24T05:50:26.054Z,18.90
2017-06-24T05:52:53.061Z,18.90
2017-06-24T05:55:20.005Z,18.80
2017-06-24T05:57:46.900Z,19.10
2017-06-24T06:00:13.821Z,19.40
2017-06-24T06:02:40.742Z,19.30
2017-06-24T06:05:07.685Z,19.20
2017-06-24T06:07:34.634Z,18.90
2017-06-24T06:10:01.702Z,18.50
2017-06-24T06:12:29.037Z,18.00
2017-06-24T06:14:55.965Z,18.00
2017-06-24T06:17:22.929Z,17.90
2017-06-24T06:19:49.878Z,18.00
2017-06-24T06:22:16.826Z,18.10
2017-06-24T06:24:43.769Z,18.10
2017-06-24T06:27:10.762Z,18.10
2017-06-24T06:29:37.785Z,18.10
2017-06-24T06:32:05.127Z,18.50
2017-06-24T06:34:32.010Z,18.50
2017-06-24T06:36:58.933Z,18.50
2017-06-24T06:39:26.211Z,18.20
2017-06-24T06:41:53.089Z,18.20
2017-06-24T06:44:20.009Z,18.10
2017-06-24T06:46:46.907Z,18.10
2017-06-24T06:49:13.846Z,18.20
2017-06-24T06:51:40.798Z,18.30
2017-06-24T06:54:07.742Z,18.40
2017-06-24T06:56:34.689Z,18.50
2017-06-24T06:59:01.733Z,18.50
2017-06-24T07:01:28.688Z,18.50
2017-06-24T07:03:55.642Z,18.70
2017-06-24T07:06:22.986Z,19.20
2017-06-24T07:08:49.934Z,19.20
2017-06-24T07:11:16.829Z,18.80
2017-06-24T07:13:43.829Z,18.90
2017-06-24T07:16:10.782Z,19.30
2017-06-24T07:18:38.125Z,19.30
2017-06-24T07:21:05.081Z,19.30
2017-06-24T07:23:32.361Z,19.10
2017-06-24T07:25:59.247Z,19.10
2017-06-24T07:28:26.266Z,19.20
2017-06-24T07:30:53.146Z,19.50
2017-06-24T07:33:20.113Z,19.80
2017-06-24T07:35:47.050Z,19.80
2017-06-24T07:38:13.941Z,19.90
2017-06-24T07:40:40.825Z,19.40
2017-06-24T07:43:07.801Z,19.20
2017-06-24T07:45:35.197Z,19.20
2017-06-24T07:48:02.144Z,19.20
2017-06-24T07:50:29.146Z,19.40
2017-06-24T07:52:56.034Z,19.20
2017-06-24T07:55:22.942Z,19.30
2017-06-24T07:57:49.889Z,19.40
2017-06-24T08:00:16.771Z,19.40
2017-06-24T08:02:43.658Z,19.60
2017-06-24T08:05:10.622Z,20.10
2017-06-24T08:07:37.507Z,20.20
2017-06-24T08:10:04.390Z,20.50
2017-06-24T08:12:31.358Z,20.80
2017-06-24T08:14:58.237Z,21.10
2017-06-24T08:17:25.152Z,21.10
2017-06-24T08:19:52.100Z,20.90
2017-06-24T08:22:19.458Z,20.70
2017-06-24T08:24:46.813Z,20.30
2017-06-24T08:27:14.170Z,20.30
2017-06-24T08:29:41.459Z,20.80
2017-06-24T08:32:08.365Z,20.90
2017-06-24T08:34:35.315Z,21.40
2017-06-24T08:37:02.198Z,20.80
2017-06-24T08:39:29.097Z,20.80
2017-06-24T08:41:56.025Z,21.10
2017-06-24T08:44:23.370Z,20.90
2017-06-24T08:46:50.254Z,20.90
2017-06-24T08:49:17.206Z,20.90
2017-06-24T08:51:44.105Z,20.40
2017-06-24T08:54:11.054Z,20.20
2017-06-24T08:56:38.110Z,20.30
2017-06-24T08:59:05.459Z,20.70
2017-06-24T09:01:32.345Z,20.70
2017-06-24T09:03:59.298Z,20.60
2017-06-24T09:06:26.201Z,20.40
2017-06-24T09:08:53.080Z,20.30
2017-06-24T09:11:20.002Z,20.30
2017-06-24T09:13:47.293Z,21.30
2017-06-24T09:16:14.189Z,21.30
2017-06-24T09:18:41.111Z,21.10
2017-06-24T09:21:08.002Z,20.80
2017-06-24T09:23:35.377Z,21.50
2017-06-24T09:26:02.314Z,21.50
2017-06-24T09:28:29.202Z,21.90
2017-06-24T09:31:40.301Z,22.30
2017-06-24T09:34:07.190Z,22.20
2017-06-24T09:36:34.197Z,21.90
2017-06-24T09:39:01.169Z,21.90
2017-06-24T09:41:28.464Z,22.60
2017-06-24T09:43:55.365Z,22.60
2017-06-24T09:46:22.686Z,22.90
2017-06-24T09:48:49.650Z,22.90
2017-06-24T09:51:16.601Z,22.70
2017-06-24T09:53:43.585Z,22.30
2017-06-24T09:56:10.489Z,22.40
2017-06-24T09:58:37.378Z,22.90
2017-06-24T10:01:04.447Z,23.20
2017-06-24T10:03:31.334Z,23.50
2017-06-24T10:05:58.685Z,23.10
2017-06-24T10:08:25.608Z,23.10
2017-06-24T10:10:52.490Z,22.70
2017-06-24T10:13:19.783Z,22.40
2017-06-24T10:15:46.786Z,22.40
2017-06-24T10:18:14.141Z,23.00
2017-06-24T10:20:41.430Z,23.20
2017-06-24T10:23:08.389Z,23.20
2017-06-24T10:25:35.278Z,23.00
2017-06-24T10:28:02.170Z,23.40
2017-06-24T10:30:29.099Z,23.40
2017-06-24T10:32:55.989Z,23.30
2017-06-24T10:35:22.869Z,23.20
2017-06-24T10:37:50.313Z,23.60
2017-06-24T10:40:17.261Z,23.60
2017-06-24T10:42:44.154Z,23.90
2017-06-24T10:45:11.074Z,24.10
2017-06-24T10:47:38.345Z,24.30
2017-06-24T10:50:05.225Z,24.30
2017-06-24T10:52:32.171Z,24.40
2017-06-24T10:54:59.058Z,24.60
2017-06-24T10:57:25.942Z,24.60
2017-06-24T10:59:52.886Z,24.00
2017-06-24T11:02:19.853Z,23.80
2017-06-24T11:04:46.842Z,23.90
2017-06-24T11:07:13.900Z,23.60
2017-06-24T11:09:40.797Z,23.40
2017-06-24T11:12:08.157Z,23.30
2017-06-24T11:14:35.505Z,23.70
2017-06-24T11:17:02.393Z,23.70
2017-06-24T11:19:29.342Z,24.10
2017-06-24T11:21:56.282Z,24.40
2017-06-24T11:24:23.166Z,24.70
2017-06-24T11:26:50.119Z,24.90
2017-06-24T11:29:17.145Z,25.00
2017-06-24T11:31:44.118Z,25.10
2017-06-24T11:34:11.059Z,24.80
2017-06-24T11:36:38.006Z,24.90
2017-06-24T11:39:04.881Z,25.10
2017-06-24T11:41:31.857Z,25.30
2017-06-24T11:43:58.806Z,25.40
2017-06-24T11:46:26.200Z,25.50
2017-06-24T11:48:53.073Z,25.50
2017-06-24T11:51:20.030Z,25.60
2017-06-24T11:53:47.040Z,25.70
2017-06-24T11:56:13.961Z,25.50
2017-06-24T11:58:41.289Z,24.00
2017-06-24T12:01:08.589Z,23.70
2017-06-24T12:03:35.604Z,23.70
2017-06-24T12:06:02.857Z,23.80
2017-06-24T12:08:29.737Z,23.90
2017-06-24T12:10:56.728Z,24.00
2017-06-24T12:13:23.670Z,24.40
2017-06-24T12:15:51.029Z,24.60
2017-06-24T12:18:17.991Z,24.60
2017-06-24T12:20:45.322Z,24.90
2017-06-24T12:23:12.278Z,24.90
2017-06-24T12:25:39.232Z,24.60
2017-06-24T12:28:06.677Z,25.10
2017-06-24T12:30:33.577Z,25.10
2017-06-24T12:33:00.457Z,25.40
2017-06-24T12:35:27.386Z,25.40
2017-06-24T12:37:54.273Z,25.80
2017-06-24T12:40:21.624Z,26.40
2017-06-24T12:42:48.978Z,26.70
2017-06-24T12:45:15.856Z,26.70
2017-06-24T12:47:42.739Z,26.70
2017-06-24T12:50:09.705Z,26.50
2017-06-24T12:52:36.623Z,26.70
2017-06-24T12:55:03.614Z,26.80
2017-06-24T12:57:31.164Z,27.00
2017-06-24T12:59:58.069Z,27.00
2017-06-24T13:02:24.955Z,27.00
2017-06-24T13:04:51.944Z,26.50
2017-06-24T13:07:18.828Z,26.60
2017-06-24T13:09:45.789Z,26.60
2017-06-24T13:12:12.787Z,26.40
2017-06-24T13:14:39.686Z,25.70
2017-06-24T13:17:06.993Z,25.40
2017-06-24T13:19:33.925Z,25.40
2017-06-24T13:22:00.809Z,25.40
2017-06-24T13:24:27.749Z,25.80
2017-06-24T13:26:54.725Z,26.30
2017-06-24T13:29:21.696Z,26.70
2017-06-24T13:31:48.969Z,27.00
2017-06-24T13:34:15.897Z,27.00
2017-06-24T13:36:43.175Z,26.60
2017-06-24T13:39:10.805Z,26.50
2017-06-24T13:41:37.738Z,26.20
2017-06-24T13:44:05.037Z,25.70
2017-06-24T13:46:31.925Z,25.70
2017-06-24T13:48:58.870Z,25.80
2017-06-24T13:51:25.762Z,25.90
2017-06-24T13:53:52.638Z,26.00
2017-06-24T13:56:19.609Z,26.20
2017-06-24T13:58:46.900Z,26.50
2017-06-24T14:01:13.805Z,26.50
2017-06-24T14:03:40.753Z,26.50
2017-06-24T14:06:07.642Z,26.20
2017-06-24T14:08:34.541Z,26.20
2017-06-24T14:11:01.485Z,26.60
2017-06-24T14:13:28.438Z,26.90
2017-06-24T14:15:55.381Z,27.00
2017-06-24T14:18:22.322Z,27.30
2017-06-24T14:20:49.217Z,27.20
2017-06-24T14:23:16.139Z,27.20
2017-06-24T14:25:43.458Z,26.90
2017-06-24T14:28:10.341Z,26.90
2017-06-24T14:30:37.231Z,26.30
2017-06-24T14:33:04.205Z,26.20
2017-06-24T14:35:31.089Z,26.60
2017-06-24T14:37:58.044Z,27.10
2017-06-24T14:40:24.974Z,27.30
2017-06-24T14:42:51.865Z,27.50
2017-06-24T14:45:18.834Z,27.80
2017-06-24T14:47:45.761Z,28.10
2017-06-24T14:50:12.880Z,28.10
2017-06-24T14:52:40.225Z,28.50
2017-06-24T14:55:07.386Z,28.50
2017-06-24T14:57:34.282Z,28.60
2017-06-24T15:00:01.158Z,28.30
2017-06-24T15:02:28.098Z,28.40
2017-06-24T15:04:55.025Z,28.20
2017-06-24T15:07:21.969Z,28.30
2017-06-24T15:09:48.922Z,28.20
2017-06-24T15:12:16.269Z,28.00
2017-06-24T15:14:43.221Z,28.00
2017-06-24T15:17:10.165Z,28.20
2017-06-24T15:19:37.053Z,28.30
2017-06-24T15:22:03.957Z,28.40
2017-06-24T15:24:30.901Z,28.20
2017-06-24T15:26:57.786Z,28.20
2017-06-24T15:29:24.794Z,28.50
2017-06-24T15:31:51.741Z,28.60
2017-06-24T15:34:18.693Z,28.70
2017-06-24T15:36:46.045Z,29.00
2017-06-24T15:39:13.034Z,29.00
2017-06-24T15:41:40.054Z,29.10
2017-06-24T15:44:07.397Z,29.40
2017-06-24T15:46:34.341Z,29.40
2017-06-24T15:49:01.290Z,29.40
2017-06-24T15:51:28.178Z,29.50
2017-06-24T15:53:55.090Z,29.60
2017-06-24T15:56:22.437Z,29.80
2017-06-24T15:58:49.381Z,29.80
2017-06-24T16:01:16.318Z,30.00
2017-06-24T16:03:43.277Z,30.10
2017-06-24T16:06:10.174Z,30.10
2017-06-24T16:08:37.165Z,30.10
2017-06-24T16:11:04.049Z,30.00
2017-06-24T16:13:30.957Z,29.90
2017-06-24T16:15:57.951Z,29.30
2017-06-24T16:18:24.849Z,29.50
2017-06-24T16:20:51.729Z,29.80
2017-06-24T16:23:18.653Z,30.00
2017-06-24T16:25:45.933Z,30.60
2017-06-24T16:28:12.841Z,30.60
2017-06-24T16:30:39.766Z,30.60
2017-06-24T16:33:06.735Z,30.60
2017-06-24T16:35:33.624Z,30.60
2017-06-24T16:38:00.546Z,30.20
2017-06-24T16:40:27.822Z,31.00
2017-06-24T16:42:54.725Z,31.00
2017-06-24T16:45:21.641Z,31.10
2017-06-24T16:47:48.618Z,31.80
2017-06-24T16:50:15.501Z,32.80
2017-06-24T16:52:42.515Z,33.80
2017-06-24T16:55:09.458Z,34.60
2017-06-24T16:57:36.414Z,34.50
2017-06-24T17:00:03.733Z,33.30
2017-06-24T17:02:30.649Z,33.30
2017-06-24T17:04:57.553Z,32.30
2017-06-24T17:07:24.469Z,32.60
2017-06-24T17:09:51.449Z,32.10
2017-06-24T17:12:18.725Z,32.80
2017-06-24T17:14:45.742Z,32.80
2017-06-24T17:17:12.636Z,34.00
2017-06-24T17:19:39.520Z,34.90
2017-06-24T17:22:06.494Z,35.60
2017-06-24T17:24:33.789Z,34.30
2017-06-24T17:27:00.729Z,34.30
2017-06-24T17:29:27.730Z,34.10
2017-06-24T17:31:54.627Z,33.00
2017-06-24T17:34:21.541Z,32.40
2017-06-24T17:36:48.498Z,31.90
2017-06-24T17:39:15.399Z,31.80
2017-06-24T17:41:42.311Z,31.20
2017-06-24T17:44:09.250Z,30.90
2017-06-24T17:46:36.223Z,30.90
2017-06-24T17:49:03.510Z,31.70
2017-06-24T17:51:30.449Z,31.70
2017-06-24T17:53:57.371Z,31.30
2017-06-24T17:56:24.791Z,29.90
2017-06-24T17:58:51.784Z,29.90
2017-06-24T18:01:18.705Z,28.80
2017-06-24T18:03:45.601Z,28.20
2017-06-24T18:06:12.522Z,28.00
2017-06-24T18:08:39.410Z,27.90
2017-06-24T18:11:06.390Z,27.70
2017-06-24T18:13:33.593Z,27.80
2017-06-24T18:16:00.474Z,27.50
2017-06-24T18:18:27.438Z,27.40
2017-06-24T18:20:54.882Z,27.20
2017-06-24T18:23:22.178Z,27.10
2017-06-24T18:25:49.058Z,27.10
2017-06-24T18:28:16.041Z,26.90
2017-06-24T18:30:43.396Z,26.80
2017-06-24T18:33:10.677Z,26.50
2017-06-24T18:35:37.693Z,26.50
2017-06-24T18:38:04.583Z,26.40
2017-06-24T18:40:31.486Z,26.10
2017-06-24T18:42:58.433Z,26.00
2017-06-24T18:45:25.329Z,26.00
2017-06-24T18:47:52.225Z,25.80
2017-06-24T18:50:19.254Z,25.80
2017-06-24T18:52:46.189Z,25.90
2017-06-24T18:55:13.161Z,25.90
2017-06-24T18:57:40.157Z,26.10
2017-06-24T19:00:07.037Z,26.10
2017-06-24T19:02:33.922Z,25.90
2017-06-24T19:05:01.258Z,25.80
2017-06-24T19:07:28.142Z,25.80
2017-06-24T19:09:55.057Z,25.70
2017-06-24T19:12:22.098Z,25.50
2017-06-24T19:14:49.050Z,25.40
2017-06-24T19:17:16.401Z,25.40
2017-06-24T19:19:43.350Z,25.40
2017-06-24T19:22:10.645Z,25.10
2017-06-24T19:24:37.649Z,25.10
2017-06-24T19:27:04.597Z,25.00
2017-06-24T19:29:31.543Z,24.90
2017-06-24T19:31:58.533Z,24.80
2017-06-24T19:34:25.414Z,24.80
2017-06-24T19:36:52.381Z,24.70
2017-06-24T19:39:19.329Z,24.60
2017-06-24T19:41:46.210Z,24.60
2017-06-24T19:44:13.094Z,24.50
2017-06-24T19:46:40.006Z,24.40
2017-06-24T19:49:06.881Z,24.40
2017-06-24T19:51:33.858Z,24.30
2017-06-24T19:54:00.773Z,24.30
2017-06-24T19:56:27.657Z,24.20
2017-06-24T19:58:55.001Z,24.20
2017-06-24T20:01:21.917Z,24.20
2017-06-24T20:03:48.894Z,24.30
2017-06-24T20:06:15.773Z,24.20
2017-06-24T20:08:42.733Z,24.00
2017-06-24T20:11:09.636Z,23.90
2017-06-24T20:13:36.521Z,24.00
2017-06-24T20:16:03.521Z,24.00
2017-06-24T20:18:30.411Z,23.90
2017-06-24T20:20:57.317Z,23.90
2017-06-24T20:23:24.254Z,24.00
2017-06-24T20:25:51.146Z,24.30
2017-06-24T20:28:18.095Z,24.40
2017-06-24T20:30:45.027Z,24.40
2017-06-24T20:33:11.951Z,24.20
2017-06-24T20:35:39.231Z,23.90
2017-06-24T20:38:06.190Z,23.90
2017-06-24T20:40:33.138Z,23.80
2017-06-24T20:43:00.014Z,23.50
2017-06-24T20:45:26.945Z,23.40
2017-06-24T20:47:53.838Z,23.30
2017-06-24T20:50:21.182Z,23.50
2017-06-24T20:52:48.174Z,23.50
2017-06-24T20:55:15.058Z,23.70
2017-06-24T20:57:41.951Z,23.80
2017-06-24T21:00:08.902Z,24.00
2017-06-24T21:02:35.822Z,24.10
2017-06-24T21:05:03.104Z,24.10
2017-06-24T21:07:30.118Z,24.10
2017-06-24T21:09:57.005Z,24.10
2017-06-24T21:12:23.881Z,24.10
2017-06-24T21:14:50.821Z,24.10
2017-06-24T21:17:17.797Z,24.10
2017-06-24T21:19:44.689Z,24.00
2017-06-24T21:22:11.601Z,24.10
2017-06-24T21:24:38.945Z,24.00
2017-06-24T21:27:05.870Z,24.00
2017-06-24T21:29:32.849Z,23.90
2017-06-24T21:32:00.137Z,23.70
2017-06-24T21:34:27.137Z,23.70
2017-06-24T21:36:54.090Z,23.60
2017-06-24T21:39:20.973Z,23.60
2017-06-24T21:41:47.901Z,23.60
2017-06-24T21:44:14.785Z,23.70
2017-06-24T21:46:41.774Z,23.60
2017-06-24T21:49:09.134Z,23.20
2017-06-24T21:51:36.413Z,23.10
2017-06-24T21:54:03.297Z,23.10
2017-06-24T21:56:30.226Z,23.10
2017-06-24T21:58:57.111Z,23.00
2017-06-24T22:01:23.993Z,23.00
2017-06-24T22:03:50.913Z,22.90
2017-06-24T22:06:18.306Z,23.10
2017-06-24T22:08:45.409Z,23.10
2017-06-24T22:11:12.362Z,23.00
2017-06-24T22:13:39.305Z,23.00
2017-06-24T22:16:06.253Z,22.90
2017-06-24T22:18:33.231Z,22.90
2017-06-24T22:21:00.145Z,22.70
2017-06-24T22:23:27.092Z,22.60
2017-06-24T22:25:54.083Z,22.50
2017-06-24T22:28:20.963Z,22.50
2017-06-24T22:30:47.933Z,22.50
2017-06-24T22:33:14.977Z,22.50
2017-06-24T22:35:41.878Z,22.40
2017-06-24T22:38:08.770Z,22.30
2017-06-24T22:40:35.717Z,22.20
2017-06-24T22:43:02.661Z,22.00
2017-06-24T22:45:29.561Z,21.90
2017-06-24T22:47:56.498Z,21.90
2017-06-24T22:50:23.403Z,22.00
2017-06-24T22:52:50.361Z,22.00
2017-06-24T22:55:17.701Z,22.00
2017-06-24T22:57:44.580Z,22.00
2017-06-24T23:00:11.494Z,21.90
2017-06-24T23:02:38.419Z,21.90
2017-06-24T23:05:05.303Z,21.80
2017-06-24T23:07:32.587Z,21.70
2017-06-24T23:09:59.581Z,21.70
2017-06-24T23:12:26.465Z,21.60
2017-06-24T23:14:53.345Z,21.60
2017-06-24T23:17:20.325Z,21.60
2017-06-24T23:19:47.265Z,21.80
2017-06-24T23:22:14.217Z,21.70
2017-06-24T23:24:41.158Z,21.50
2017-06-24T23:27:08.042Z,21.40
2017-06-24T23:29:34.949Z,21.50
2017-06-24T23:32:01.901Z,21.40
2017-06-24T23:34:28.846Z,21.40
2017-06-24T23:36:55.799Z,21.40
2017-06-24T23:39:23.149Z,21.40
2017-06-24T23:41:50.098Z,21.40
2017-06-24T23:44:17.037Z,21.40
2017-06-24T23:46:44.030Z,21.40
2017-06-24T23:49:10.909Z,21.40
2017-06-24T23:51:37.878Z,21.40
2017-06-24T23:54:04.825Z,21.30
2017-06-24T23:56:31.782Z,21.20
2017-06-24T23:58:59.063Z,21.20
